Time;durP1;ratioP1;P1;durP2;ratioP2;P2;SDS_P1;SDS_P2;PMS_P1;PMS_P2;Temp;Humidity;BMP_temperature;BMP_pressure;BME280_temperature;BME280_humidity;BME280_pressure;Samples;Min_cycle;Max_cycle;Signal;HPM_P1;HPM_P2
2022/12/29 00:00:05;;;;;;;1.20;1.10;;;;;;;9.46;83.74;99548.47;5055355;28;20254;-78
2022/12/29 00:02:31;;;;;;;1.60;1.00;;;;;;;9.51;83.61;99543.13;5055725;28;20213;-77
2022/12/29 00:04:58;;;;;;;0.90;0.90;;;;;;;9.52;83.52;99552.66;5061183;22;20865;-80
2022/12/29 00:07:24;;;;;;;1.53;1.00;;;;;;;9.55;83.70;99544.72;5036573;28;20206;-81
2022/12/29 00:09:52;;;;;;;2.50;1.10;;;;;;;9.50;83.56;99549.25;5035564;28;20213;-80
2022/12/29 00:12:18;;;;;;;1.27;1.13;;;;;;;9.58;84.24;99536.84;5035946;28;20735;-80
2022/12/29 00:17:33;;;;;;;1.20;1.10;;;;;;;9.59;83.57;99537.69;5026429;28;20304;-80
2022/12/29 00:36:32;;;;;;;1.60;1.13;;;;;;;9.64;83.45;99534.06;5037398;28;20300;-81
2022/12/29 00:44:30;;;;;;;0.80;0.80;;;;;;;9.75;84.23;99507.66;5036503;28;20247;-82
2022/12/29 00:46:56;;;;;;;1.07;0.97;;;;;;;9.72;85.34;99495.59;5038053;28;20232;-81
2022/12/29 00:49:31;;;;;;;1.23;1.00;;;;;;;9.78;85.72;99467.63;5037505;28;20559;-81
2022/12/29 00:51:59;;;;;;;1.40;1.23;;;;;;;9.71;86.03;99457.41;5037175;28;20699;-81
2022/12/29 00:54:25;;;;;;;0.97;0.90;;;;;;;9.73;85.94;99449.53;5036791;28;20238;-81
2022/12/29 00:56:53;;;;;;;1.00;0.90;;;;;;;9.77;86.05;99445.91;5036434;28;20276;-80
2022/12/29 00:59:20;;;;;;;1.60;0.90;;;;;;;9.80;85.65;99439.78;5037617;28;20214;-81
2022/12/29 01:01:47;;;;;;;1.03;1.00;;;;;;;9.79;85.91;99431.13;5036838;28;20210;-80
2022/12/29 01:04:14;;;;;;;1.70;1.13;;;;;;;9.77;85.71;99438.09;5037541;28;20689;-81
2022/12/29 01:06:41;;;;;;;0.80;0.80;;;;;;;9.77;85.71;99426.81;5037018;28;20272;-79
2022/12/29 01:11:54;;;;;;;1.50;1.00;;;;;;;9.84;86.11;99436.16;5036396;28;20208;-81
2022/12/29 01:14:21;;;;;;;1.03;0.80;;;;;;;9.82;85.91;99419.72;5036601;28;20230;-79
2022/12/29 01:16:48;;;;;;;1.27;0.87;;;;;;;9.78;86.38;99415.50;5036693;28;20210;-81
2022/12/29 01:19:15;;;;;;;2.13;1.10;;;;;;;9.73;86.91;99400.88;5036377;28;20259;-81
2022/12/29 01:21:41;;;;;;;2.40;1.20;;;;;;;9.70;87.42;99385.34;5036462;28;20208;-80
2022/12/29 01:24:08;;;;;;;0.90;0.90;;;;;;;9.73;87.53;99372.22;5037093;28;20266;-81
2022/12/29 01:26:34;;;;;;;1.00;1.00;;;;;;;9.73;87.41;99364.41;5036199;28;20218;-80
2022/12/29 01:29:02;;;;;;;1.30;1.00;;;;;;;9.71;88.17;99349.69;5037232;28;20212;-80
2022/12/29 01:31:28;;;;;;;2.00;1.03;;;;;;;9.70;88.28;99346.25;5036139;28;20339;-81
2022/12/29 01:33:55;;;;;;;0.87;0.80;;;;;;;9.66;88.50;99310.78;5037121;28;20205;-80
2022/12/29 01:36:22;;;;;;;1.00;1.00;;;;;;;9.73;88.78;99311.41;5037045;28;20228;-80
2022/12/29 01:38:48;;;;;;;1.00;1.00;;;;;;;9.65;88.88;99313.44;5036973;28;20209;-81
2022/12/29 01:41:16;;;;;;;0.90;0.90;;;;;;;9.74;89.14;99295.72;5036119;28;20206;-80
2022/12/29 01:43:45;;;;;;;1.97;1.00;;;;;;;9.70;88.91;99283.72;5036269;28;20202;-80
2022/12/29 01:46:23;;;;;;;1.40;0.80;;;;;;;9.72;88.89;99283.66;5036627;28;20233;-81
2022/12/29 01:48:52;;;;;;;1.30;0.80;;;;;;;9.72;89.12;99281.06;5037131;28;20209;-81
2022/12/29 01:51:18;;;;;;;1.20;1.07;;;;;;;9.72;89.54;99266.25;5036637;28;20276;-82
2022/12/29 01:53:46;;;;;;;0.87;0.87;;;;;;;9.69;89.25;99289.84;5036719;28;20213;-80
2022/12/29 01:56:15;;;;;;;2.20;0.80;;;;;;;9.73;89.60;99254.06;5036301;28;20230;-81
2022/12/29 01:58:46;;;;;;;0.60;0.60;;;;;;;9.64;90.06;99247.44;5036851;28;20571;-81
2022/12/29 02:01:13;;;;;;;0.67;0.63;;;;;;;9.73;89.79;99236.72;5036107;28;20209;-81
2022/12/29 02:03:41;;;;;;;2.03;0.70;;;;;;;9.74;89.62;99241.00;5036964;28;20912;-81
2022/12/29 02:06:13;;;;;;;2.50;0.70;;;;;;;9.80;89.30;99239.09;5037069;28;20303;-81
2022/12/29 02:08:40;;;;;;;0.70;0.70;;;;;;;9.82;88.79;99251.16;5037027;28;20208;-81
2022/12/29 02:11:08;;;;;;;0.93;0.80;;;;;;;9.92;88.89;99254.31;5036312;28;20258;-81
2022/12/29 02:13:34;;;;;;;0.63;0.60;;;;;;;9.93;88.62;99259.47;5035830;28;20229;-81
2022/12/29 02:16:11;;;;;;;0.90;0.70;;;;;;;9.94;88.48;99268.13;5036714;28;20604;-80
2022/12/29 02:18:50;;;;;;;0.83;0.83;;;;;;;10.03;88.06;99274.75;5037243;28;20206;-80
2022/12/29 02:21:47;;;;;;;1.63;0.70;;;;;;;10.01;87.60;99295.69;5037464;28;20615;-81
2022/12/29 02:24:35;;;;;;;0.60;0.60;;;;;;;10.09;87.26;99298.88;5038165;28;20209;-81
2022/12/29 02:27:24;;;;;;;0.80;0.80;;;;;;;10.08;87.20;99306.75;5037688;28;20275;-81
2022/12/29 02:30:08;;;;;;;0.73;0.73;;;;;;;10.09;86.88;99311.91;5037289;28;20210;-79
2022/12/29 02:32:44;;;;;;;0.80;0.80;;;;;;;10.18;86.98;99317.72;5037993;28;20212;-81
2022/12/29 02:35:18;;;;;;;1.00;0.87;;;;;;;10.23;86.59;99318.41;5037303;28;20247;-79
2022/12/29 02:37:56;;;;;;;0.80;0.63;;;;;;;10.25;86.60;99334.84;5037379;28;20744;-80
2022/12/29 02:40:27;;;;;;;0.60;0.60;;;;;;;10.25;86.28;99340.06;5041457;28;20285;-81
2022/12/29 02:43:04;;;;;;;1.77;0.90;;;;;;;10.26;85.78;99366.06;5041671;28;20216;-80
2022/12/29 02:45:35;;;;;;;0.70;0.70;;;;;;;10.31;85.39;99386.84;5041439;28;20233;-81
2022/12/29 02:48:07;;;;;;;0.83;0.80;;;;;;;10.34;85.17;99391.91;5041446;28;20263;-81
2022/12/29 02:50:37;;;;;;;0.50;0.50;;;;;;;10.32;85.00;99407.63;5041426;28;20646;-81
2022/12/29 02:53:08;;;;;;;0.90;0.80;;;;;;;10.40;84.92;99394.31;5041595;28;20718;-81
2022/12/29 02:55:33;;;;;;;0.80;0.80;;;;;;;10.39;84.59;99403.06;5041145;28;20218;-80
2022/12/29 02:58:18;;;;;;;0.93;0.93;;;;;;;10.37;85.07;99398.81;5041783;28;20750;-81
2022/12/29 03:00:56;;;;;;;0.77;0.77;;;;;;;10.34;84.74;99411.03;5040878;28;20202;-81
2022/12/29 03:03:36;;;;;;;1.30;0.80;;;;;;;10.37;84.75;99401.41;5041311;28;20209;-80
2022/12/29 03:06:16;;;;;;;2.10;0.90;;;;;;;10.41;84.38;99416.91;5041481;28;20672;-81
2022/12/29 03:08:53;;;;;;;0.70;0.70;;;;;;;10.43;84.30;99398.59;5041357;28;20279;-81
2022/12/29 03:17:00;;;;;;;0.77;0.77;;;;;;;10.35;85.74;99375.38;5041417;28;20201;-81
2022/12/29 03:19:32;;;;;;;1.10;1.00;;;;;;;10.25;86.45;99334.84;5041016;28;20231;-82
2022/12/29 03:24:48;;;;;;;1.00;1.00;;;;;;;10.30;87.28;99294.66;5041901;28;20232;-81
2022/12/29 03:27:18;;;;;;;0.80;0.80;;;;;;;10.18;88.42;99269.00;5041389;28;20226;-81
2022/12/29 03:29:52;;;;;;;0.80;0.80;;;;;;;10.22;88.92;99246.28;5041324;28;20260;-80
2022/12/29 03:32:20;;;;;;;1.67;0.77;;;;;;;10.22;89.05;99221.03;5041402;28;20256;-81
2022/12/29 03:34:50;;;;;;;1.10;1.00;;;;;;;10.23;88.88;99211.47;5040109;28;20252;-80
2022/12/29 03:37:19;;;;;;;1.17;0.93;;;;;;;10.21;88.99;99208.94;5036992;28;20234;-81
2022/12/29 03:39:46;;;;;;;0.90;0.90;;;;;;;10.28;89.06;99196.50;5036978;28;20228;-80
2022/12/29 03:42:18;;;;;;;1.30;1.10;;;;;;;10.26;89.26;99195.72;5036444;28;20221;-81
2022/12/29 03:44:46;;;;;;;0.93;0.90;;;;;;;10.26;89.61;99183.50;5036867;28;20230;-81
2022/12/29 03:47:14;;;;;;;1.10;1.10;;;;;;;10.24;89.41;99190.53;5037257;28;20230;-78
2022/12/29 03:49:41;;;;;;;0.70;0.70;;;;;;;10.18;89.77;99185.56;5036267;28;20730;-78
2022/12/29 03:52:09;;;;;;;0.73;0.73;;;;;;;10.19;90.00;99153.38;5036970;28;20213;-78
2022/12/29 03:54:35;;;;;;;1.37;0.80;;;;;;;10.17;90.32;99164.75;5036580;28;20263;-80
2022/12/29 03:57:01;;;;;;;0.83;0.70;;;;;;;10.23;90.13;99154.94;5037910;28;20213;-80
2022/12/29 03:59:28;;;;;;;1.17;0.70;;;;;;;10.25;89.83;99153.13;5038137;28;20209;-80
2022/12/29 04:01:54;;;;;;;0.60;0.60;;;;;;;10.26;89.80;99165.25;5037555;28;20236;-80
2022/12/29 04:04:21;;;;;;;0.90;0.67;;;;;;;10.27;89.51;99168.72;5037478;28;20305;-80
2022/12/29 04:06:47;;;;;;;0.63;0.63;;;;;;;10.25;89.14;99184.44;5037896;28;20253;-80
2022/12/29 04:09:15;;;;;;;0.70;0.70;;;;;;;10.32;89.07;99193.72;5037441;28;20211;-80
2022/12/29 04:11:41;;;;;;;0.60;0.60;;;;;;;10.36;88.84;99207.53;5037152;28;20260;-80
2022/12/29 04:14:07;;;;;;;0.80;0.70;;;;;;;10.37;88.57;99211.00;5036746;28;20210;-80
2022/12/29 04:16:35;;;;;;;1.03;0.70;;;;;;;10.38;88.13;99223.13;5037770;28;20202;-80
2022/12/29 04:19:01;;;;;;;0.70;0.70;;;;;;;10.43;87.96;99236.84;5037470;28;20634;-80
2022/12/29 04:21:27;;;;;;;0.70;0.70;;;;;;;10.47;87.50;99238.44;5037007;28;20210;-80
2022/12/29 04:23:53;;;;;;;0.70;0.57;;;;;;;10.52;87.10;99254.75;5038163;28;20232;-82
2022/12/29 04:26:21;;;;;;;0.60;0.60;;;;;;;10.52;87.13;99270.41;5037528;28;20268;-79
2022/12/29 04:28:47;;;;;;;0.70;0.70;;;;;;;10.53;86.60;99277.34;5041932;28;20628;-78
2022/12/29 04:31:13;;;;;;;0.60;0.60;;;;;;;10.56;86.23;99290.25;5038003;28;20260;-78
2022/12/29 04:33:40;;;;;;;0.60;0.60;;;;;;;10.55;86.06;99303.38;5036440;28;20260;-78
2022/12/29 04:36:07;;;;;;;0.53;0.53;;;;;;;10.59;85.28;99305.81;5035779;28;20225;-78
2022/12/29 04:38:33;;;;;;;0.57;0.57;;;;;;;10.64;84.83;99332.56;5036661;28;20264;-77
2022/12/29 04:41:00;;;;;;;0.97;0.60;;;;;;;10.63;84.21;99338.72;5036531;28;20235;-78
2022/12/29 04:43:28;;;;;;;0.43;0.43;;;;;;;10.69;83.64;99379.38;5036691;28;20228;-79
2022/12/29 04:45:54;;;;;;;0.50;0.50;;;;;;;10.73;83.07;99375.75;5036665;28;20287;-79
2022/12/29 04:48:21;;;;;;;0.50;0.50;;;;;;;10.79;82.37;99409.47;5036406;28;20751;-79
2022/12/29 04:50:49;;;;;;;0.40;0.40;;;;;;;10.77;82.30;99426.09;5036158;28;20202;-79
2022/12/29 04:53:16;;;;;;;0.60;0.60;;;;;;;10.84;82.01;99417.13;5036191;28;20229;-78
2022/12/29 04:55:42;;;;;;;0.50;0.50;;;;;;;10.81;81.45;99431.13;5036456;28;20223;-81
2022/12/29 04:58:08;;;;;;;0.40;0.40;;;;;;;10.87;81.01;99438.75;5036465;28;20206;-80
2022/12/29 05:00:36;;;;;;;0.47;0.47;;;;;;;10.91;80.16;99461.22;5036546;28;20256;-81
2022/12/29 05:03:02;;;;;;;0.60;0.60;;;;;;;10.95;80.19;99480.25;5036079;28;20233;-82
2022/12/29 05:05:29;;;;;;;0.30;0.30;;;;;;;11.00;80.38;99486.16;5036749;28;20267;-81
2022/12/29 05:07:55;;;;;;;1.07;0.40;;;;;;;10.97;79.70;99483.66;5036695;28;20284;-79
2022/12/29 05:10:21;;;;;;;2.37;0.37;;;;;;;11.03;80.33;99478.22;5036273;28;20680;-79
2022/12/29 05:12:48;;;;;;;0.87;0.40;;;;;;;11.05;79.85;99471.16;5036953;28;20236;-79
2022/12/29 05:15:14;;;;;;;0.63;0.60;;;;;;;11.04;79.21;99498.22;5035459;28;20260;-80
2022/12/29 05:17:42;;;;;;;0.60;0.50;;;;;;;11.08;79.55;99497.19;5036093;28;20221;-78
2022/12/29 05:20:09;;;;;;;0.90;0.40;;;;;;;11.08;78.63;99485.88;5036208;28;20214;-79
2022/12/29 05:22:36;;;;;;;0.57;0.50;;;;;;;11.11;79.06;99494.44;5036015;28;20201;-78
2022/12/29 05:25:02;;;;;;;1.27;0.40;;;;;;;11.08;78.67;99517.22;5037195;28;20253;-78
2022/12/29 05:27:28;;;;;;;0.60;0.40;;;;;;;11.07;78.74;99510.28;5036518;28;20226;-78
2022/12/29 05:29:55;;;;;;;0.53;0.30;;;;;;;11.11;79.20;99498.81;5035729;28;20590;-78
2022/12/29 05:32:21;;;;;;;0.40;0.40;;;;;;;11.10;79.25;99490.16;5036581;28;20214;-79
2022/12/29 05:34:49;;;;;;;0.47;0.47;;;;;;;11.11;80.07;99478.78;5036591;28;20364;-79
2022/12/29 05:37:15;;;;;;;0.73;0.50;;;;;;;11.04;79.72;99468.59;5036270;28;20198;-78
2022/12/29 05:39:42;;;;;;;0.50;0.50;;;;;;;11.07;80.13;99448.47;5036255;28;20205;-79
2022/12/29 05:42:08;;;;;;;0.47;0.37;;;;;;;11.06;80.31;99446.78;5035833;28;20209;-78
2022/12/29 05:44:35;;;;;;;0.60;0.50;;;;;;;11.00;80.77;99430.47;5036339;28;20222;-78
2022/12/29 05:47:01;;;;;;;0.50;0.50;;;;;;;11.00;81.58;99402.59;5036582;28;20225;-79
2022/12/29 05:49:28;;;;;;;0.40;0.40;;;;;;;10.84;82.55;99380.56;5035846;28;20212;-80
2022/12/29 05:51:55;;;;;;;1.27;0.50;;;;;;;10.91;83.54;99333.28;5035797;28;20202;-82
2022/12/29 05:54:22;;;;;;;0.53;0.50;;;;;;;10.85;83.88;99299.59;5035807;28;20276;-81
2022/12/29 05:56:48;;;;;;;0.40;0.40;;;;;;;10.82;84.78;99277.97;5036366;28;20210;-80
2022/12/29 05:59:14;;;;;;;0.40;0.40;;;;;;;10.82;85.96;99241.44;5036207;28;20252;-81
2022/12/29 06:01:41;;;;;;;0.50;0.50;;;;;;;10.81;87.01;99216.25;5035816;28;20207;-80
2022/12/29 06:04:07;;;;;;;0.47;0.30;;;;;;;10.83;87.40;99185.72;5036034;28;20275;-80
2022/12/29 06:09:02;;;;;;;1.60;0.50;;;;;;;10.74;88.32;99145.16;5030490;28;20237;-76
2022/12/29 06:11:29;;;;;;;0.40;0.40;;;;;;;10.77;88.56;99132.00;5031984;28;20206;-78
2022/12/29 06:13:55;;;;;;;1.20;0.40;;;;;;;10.75;88.41;99146.88;5031603;28;20210;-76
2022/12/29 06:16:22;;;;;;;0.40;0.40;;;;;;;10.76;88.34;99124.22;5032067;28;20726;-77
2022/12/29 06:18:48;;;;;;;0.33;0.33;;;;;;;10.80;88.03;99125.78;5032227;28;20291;-77
2022/12/29 06:21:14;;;;;;;0.53;0.40;;;;;;;10.68;88.15;99121.91;5032303;28;20628;-77
2022/12/29 06:23:41;;;;;;;0.70;0.40;;;;;;;10.73;88.25;99113.00;5032458;28;20212;-77
2022/12/29 06:26:08;;;;;;;0.60;0.50;;;;;;;10.71;88.23;99127.03;5032609;28;20553;-76
2022/12/29 06:28:35;;;;;;;0.40;0.40;;;;;;;10.76;87.79;99114.63;5032962;28;20287;-77
2022/12/29 06:31:02;;;;;;;0.30;0.30;;;;;;;10.83;87.46;99130.91;5032564;28;20202;-76
2022/12/29 06:33:29;;;;;;;0.27;0.27;;;;;;;10.84;87.03;99135.19;5032623;28;20293;-77
2022/12/29 06:35:55;;;;;;;0.20;0.20;;;;;;;10.89;86.34;99154.13;5032591;28;20201;-77
2022/12/29 06:38:22;;;;;;;0.40;0.40;;;;;;;10.87;86.40;99180.28;5032189;28;20229;-77
2022/12/29 06:40:48;;;;;;;0.30;0.30;;;;;;;10.88;85.43;99200.28;5032416;28;20206;-76
2022/12/29 06:43:16;;;;;;;0.30;0.30;;;;;;;10.90;85.08;99208.91;5031743;28;20626;-76
2022/12/29 06:45:43;;;;;;;0.30;0.30;;;;;;;10.97;84.95;99201.66;5031881;28;20248;-76
2022/12/29 06:48:09;;;;;;;0.20;0.20;;;;;;;10.98;84.65;99224.25;5031819;28;20261;-76
2022/12/29 06:50:35;;;;;;;0.30;0.30;;;;;;;11.02;84.28;99231.06;5031660;28;20210;-77
2022/12/29 06:53:02;;;;;;;0.43;0.30;;;;;;;11.02;84.75;99232.78;5036816;28;20206;-79
2022/12/29 06:55:28;;;;;;;0.30;0.30;;;;;;;11.03;85.14;99208.41;5038713;28;20202;-79
2022/12/29 06:57:56;;;;;;;0.20;0.20;;;;;;;11.07;85.22;99192.53;5036876;28;20296;-78
2022/12/29 07:00:24;;;;;;;0.40;0.30;;;;;;;11.04;84.18;99234.47;5032643;28;20207;-76
2022/12/29 07:02:51;;;;;;;0.20;0.20;;;;;;;11.03;83.79;99243.19;5031594;28;20202;-77
2022/12/29 07:05:18;;;;;;;0.30;0.30;;;;;;;11.04;83.58;99288.41;5027102;28;20225;-76
2022/12/29 07:07:45;;;;;;;0.20;0.20;;;;;;;11.07;82.61;99293.53;5022273;28;20226;-77
2022/12/29 07:10:11;;;;;;;0.33;0.30;;;;;;;11.12;81.80;99321.19;5021711;28;20203;-76
2022/12/29 07:12:38;;;;;;;0.50;0.33;;;;;;;11.21;80.50;99353.06;5020332;28;20203;-76
2022/12/29 07:15:05;;;;;;;0.20;0.20;;;;;;;11.25;79.72;99371.16;5020542;28;20281;-76
2022/12/29 07:17:32;;;;;;;0.30;0.30;;;;;;;11.30;80.38;99384.06;5021078;28;20273;-76
2022/12/29 07:19:59;;;;;;;0.30;0.30;;;;;;;11.28;79.14;99389.34;5019368;28;20258;-76
2022/12/29 07:22:25;;;;;;;0.40;0.20;;;;;;;11.31;78.55;99407.50;5021970;28;20202;-76
2022/12/29 07:24:51;;;;;;;0.20;0.20;;;;;;;11.29;77.97;99426.75;5021796;28;20199;-76
2022/12/29 07:27:18;;;;;;;0.57;0.33;;;;;;;11.29;78.41;99439.81;5023807;28;20726;-76
2022/12/29 07:29:44;;;;;;;0.23;0.23;;;;;;;11.23;77.76;99437.44;5025116;28;20206;-77
2022/12/29 07:32:11;;;;;;;0.37;0.20;;;;;;;11.29;77.38;99471.19;5024944;28;20657;-77
2022/12/29 07:34:39;;;;;;;1.10;0.83;;;;;;;11.24;78.14;99510.53;5023429;28;20218;-76
2022/12/29 07:37:06;;;;;;;0.43;0.33;;;;;;;11.24;78.48;99494.88;5025088;28;20229;-76
2022/12/29 07:39:32;;;;;;;0.30;0.30;;;;;;;11.13;79.06;99486.56;5025010;28;20273;-76
2022/12/29 07:41:58;;;;;;;0.30;0.30;;;;;;;11.13;80.54;99439.56;5023089;28;20199;-76
2022/12/29 07:44:25;;;;;;;0.67;0.37;;;;;;;11.19;80.99;99435.88;5025227;28;20904;-77
2022/12/29 07:46:51;;;;;;;1.17;0.40;;;;;;;11.17;80.84;99433.31;5024666;28;20226;-76
2022/12/29 07:49:18;;;;;;;0.73;0.50;;;;;;;11.18;81.33;99419.34;5026079;28;20628;-76
2022/12/29 07:51:45;;;;;;;0.50;0.50;;;;;;;11.15;80.64;99429.91;5023137;28;20605;-76
2022/12/29 07:54:12;;;;;;;0.53;0.50;;;;;;;11.17;80.77;99416.78;5023625;28;20267;-76
2022/12/29 07:56:39;;;;;;;0.77;0.37;;;;;;;11.07;80.98;99396.22;5024636;28;20197;-76
2022/12/29 07:59:05;;;;;;;0.30;0.30;;;;;;;11.08;81.62;99395.34;5023117;28;20642;-77
2022/12/29 08:01:32;;;;;;;0.20;0.20;;;;;;;11.02;82.68;99358.13;5023787;28;20202;-76
2022/12/29 08:03:58;;;;;;;0.30;0.30;;;;;;;10.96;84.24;99329.66;5024744;28;20252;-76
2022/12/29 08:06:24;;;;;;;1.30;0.30;;;;;;;10.81;87.04;99258.84;5023682;28;20206;-75
2022/12/29 08:08:52;;;;;;;0.37;0.30;;;;;;;10.76;89.13;99195.53;5023801;28;20223;-77
2022/12/29 08:11:18;;;;;;;0.30;0.30;;;;;;;10.78;89.69;99169.38;5022323;28;20211;-77
2022/12/29 08:13:45;;;;;;;0.53;0.40;;;;;;;10.56;92.05;99119.81;5024199;28;20220;-76
2022/12/29 08:16:11;;;;;;;0.40;0.40;;;;;;;10.63;92.25;99082.13;5023577;28;20211;-76
2022/12/29 08:18:37;;;;;;;0.73;0.40;;;;;;;10.62;92.81;99069.97;5022326;28;20225;-76
2022/12/29 08:21:05;;;;;;;0.70;0.70;;;;;;;10.64;93.49;99044.66;5021646;28;20225;-76
2022/12/29 08:23:32;;;;;;;0.60;0.40;;;;;;;10.67;94.60;99021.06;5029085;28;20729;-76
2022/12/29 08:26:01;;;;;;;0.97;0.30;;;;;;;10.67;95.59;99001.03;5033907;28;20729;-77
2022/12/29 08:28:27;;;;;;;0.40;0.30;;;;;;;10.64;95.94;98987.25;5034348;28;20237;-77
2022/12/29 08:30:58;;;;;;;0.40;0.40;;;;;;;10.51;94.80;98998.22;5033474;28;20222;-76
2022/12/29 08:33:24;;;;;;;0.50;0.40;;;;;;;10.51;93.32;99047.78;5034214;28;20619;-76
2022/12/29 08:35:51;;;;;;;0.70;0.40;;;;;;;10.52;90.34;99106.91;5033772;28;20256;-75
2022/12/29 08:38:17;;;;;;;0.30;0.30;;;;;;;10.62;89.70;99137.81;5033381;28;20223;-76
2022/12/29 08:40:44;;;;;;;0.40;0.40;;;;;;;10.69;88.80;99176.66;5032913;28;20612;-76
2022/12/29 08:43:12;;;;;;;0.40;0.40;;;;;;;10.74;87.00;99231.28;5033117;28;20737;-76
2022/12/29 08:45:38;;;;;;;0.20;0.20;;;;;;;10.75;86.39;99259.09;5033192;28;20632;-75
2022/12/29 08:48:05;;;;;;;0.50;0.40;;;;;;;10.90;87.38;99278.53;5033179;28;20304;-75
2022/12/29 08:50:31;;;;;;;0.30;0.30;;;;;;;10.80;87.74;99326.78;5032883;28;20667;-76
2022/12/29 08:52:58;;;;;;;1.80;0.50;;;;;;;10.78;90.53;99252.91;5033117;28;20214;-75
2022/12/29 08:55:24;;;;;;;0.50;0.50;;;;;;;10.50;93.70;99205.25;5033195;28;20252;-76
2022/12/29 08:57:51;;;;;;;2.53;0.60;;;;;;;10.23;97.16;99130.66;5032919;28;20281;-76
2022/12/29 09:00:20;;;;;;;1.90;0.70;;;;;;;9.83;100.00;99044.38;5033404;28;20214;-76
2022/12/29 09:02:47;;;;;;;1.53;1.10;;;;;;;9.67;100.00;98945.13;5033031;28;20203;-76
2022/12/29 09:05:13;;;;;;;5.73;1.33;;;;;;;9.85;100.00;98907.06;5033856;28;20206;-78
2022/12/29 09:07:39;;;;;;;0.97;0.87;;;;;;;9.89;100.00;98906.00;5033034;28;20650;-77
2022/12/29 09:10:07;;;;;;;1.77;0.90;;;;;;;9.97;100.00;98926.56;5033774;28;20202;-77
2022/12/29 09:12:33;;;;;;;1.83;0.70;;;;;;;10.02;100.00;98944.59;5034325;28;20210;-78
2022/12/29 09:15:00;;;;;;;1.13;0.73;;;;;;;10.01;100.00;98951.59;5032816;28;20210;-77
2022/12/29 09:17:44;;;;;;;1.30;0.70;;;;;;;9.97;100.00;98965.66;5032617;28;20283;-77
2022/12/29 09:20:11;;;;;;;0.57;0.57;;;;;;;10.02;100.00;98968.91;5021015;28;20199;-77
2022/12/29 09:22:37;;;;;;;0.70;0.50;;;;;;;10.10;100.00;98992.91;5022554;28;20205;-77
2022/12/29 09:25:04;;;;;;;0.43;0.43;;;;;;;10.13;100.00;99018.88;5031406;28;20205;-75
2022/12/29 09:27:31;;;;;;;1.13;0.40;;;;;;;10.05;100.00;99028.75;5032714;28;20745;-76
2022/12/29 09:29:57;;;;;;;0.50;0.50;;;;;;;10.08;100.00;99018.19;5032022;28;20210;-76
2022/12/29 09:32:24;;;;;;;0.60;0.60;;;;;;;10.13;100.00;99018.03;5032527;28;20273;-76
2022/12/29 09:34:51;;;;;;;0.60;0.60;;;;;;;10.18;100.00;99025.66;5032627;28;20268;-75
2022/12/29 09:37:18;;;;;;;0.83;0.50;;;;;;;10.18;100.00;99029.09;5032223;28;20715;-76
2022/12/29 09:39:44;;;;;;;0.80;0.80;;;;;;;10.25;100.00;99030.56;5032575;28;20309;-75
2022/12/29 09:42:18;;;;;;;0.77;0.40;;;;;;;10.25;100.00;99048.81;5034027;28;20209;-78
2022/12/29 09:44:53;;;;;;;0.50;0.40;;;;;;;10.26;100.00;99049.66;5034894;28;20207;-78
2022/12/29 09:47:24;;;;;;;1.13;0.93;;;;;;;10.23;100.00;99050.63;5034035;28;20718;-77
2022/12/29 09:49:55;;;;;;;0.63;0.50;;;;;;;10.30;100.00;99041.66;5033517;28;20210;-75
2022/12/29 09:52:25;;;;;;;1.00;0.50;;;;;;;10.32;100.00;99026.81;5034226;28;20202;-74
2022/12/29 09:54:55;;;;;;;1.20;0.60;;;;;;;10.35;100.00;99023.25;5033509;28;20209;-75
2022/12/29 09:57:26;;;;;;;0.60;0.60;;;;;;;10.38;100.00;99012.69;5032506;28;20295;-76
2022/12/29 09:59:57;;;;;;;1.37;0.97;;;;;;;10.45;100.00;99015.91;5032491;28;20745;-78
2022/12/29 10:02:33;;;;;;;0.60;0.60;;;;;;;10.38;100.00;99040.53;5033602;28;20256;-77
2022/12/29 10:05:01;;;;;;;0.93;0.67;;;;;;;10.41;99.59;99079.53;5033000;28;20205;-78
2022/12/29 10:07:38;;;;;;;1.20;0.50;;;;;;;10.51;98.90;99099.97;5032953;28;20272;-77
2022/12/29 10:10:20;;;;;;;1.40;0.60;;;;;;;10.60;97.64;99131.81;5033385;28;20209;-78
2022/12/29 10:13:06;;;;;;;1.77;0.57;;;;;;;10.59;94.35;99193.59;5033161;28;20667;-77
2022/12/29 10:15:46;;;;;;;1.20;0.60;;;;;;;10.53;93.14;99236.44;5033173;28;20210;-76
2022/12/29 10:18:30;;;;;;;1.27;0.60;;;;;;;10.64;92.98;99249.06;5032919;28;20226;-76
2022/12/29 10:21:05;;;;;;;1.53;0.57;;;;;;;10.72;93.78;99241.81;5032942;28;20202;-78
2022/12/29 10:23:38;;;;;;;1.70;0.60;;;;;;;10.72;92.48;99267.03;5032301;28;20626;-77
2022/12/29 10:26:13;;;;;;;0.37;0.37;;;;;;;10.75;91.13;99306.06;5033609;28;20213;-78
2022/12/29 10:28:43;;;;;;;0.50;0.50;;;;;;;10.80;90.69;99322.44;5033505;28;20228;-79
2022/12/29 10:31:15;;;;;;;1.40;0.57;;;;;;;10.77;88.40;99371.28;5032607;28;20214;-78
2022/12/29 10:33:43;;;;;;;0.50;0.50;;;;;;;10.79;87.68;99399.03;5032914;28;20340;-78
2022/12/29 10:36:17;;;;;;;0.50;0.50;;;;;;;10.71;85.24;99432.38;5032623;28;20264;-76
2022/12/29 10:38:53;;;;;;;0.93;0.80;;;;;;;10.69;84.56;99496.84;5033122;28;20260;-78
2022/12/29 10:41:25;;;;;;;2.17;0.70;;;;;;;10.66;84.62;99504.75;5026494;28;20711;-78
2022/12/29 10:43:54;;;;;;;0.80;0.40;;;;;;;10.70;83.97;99499.41;5021711;28;20253;-78
2022/12/29 10:46:23;;;;;;;0.60;0.60;;;;;;;10.75;85.17;99483.56;5021384;28;20214;-75
2022/12/29 10:48:50;;;;;;;1.73;0.70;;;;;;;10.77;85.48;99473.09;5020654;28;20281;-77
2022/12/29 10:51:23;;;;;;;2.87;0.83;;;;;;;10.79;84.84;99481.72;5021614;28;20668;-78
2022/12/29 10:53:54;;;;;;;1.80;0.57;;;;;;;10.71;82.99;99506.31;5023514;28;20661;-79
2022/12/29 10:56:30;;;;;;;0.70;0.60;;;;;;;10.74;83.47;99549.72;5022692;28;20202;-78
2022/12/29 10:59:00;;;;;;;2.53;0.60;;;;;;;10.73;82.27;99572.38;5022362;28;20254;-77
2022/12/29 11:01:35;;;;;;;0.90;0.63;;;;;;;10.80;83.78;99557.38;4331898;28;10000666;-78
2022/12/29 11:04:06;;;;;;;0.83;0.60;;;;;;;10.84;80.90;99586.81;5023835;28;20563;-77
2022/12/29 11:06:34;;;;;;;1.23;0.63;;;;;;;10.87;81.23;99605.84;5021985;28;20203;-77
2022/12/29 11:09:09;;;;;;;2.03;0.70;;;;;;;10.96;82.22;99589.03;5021436;28;20230;-78
2022/12/29 11:11:37;;;;;;;1.43;0.90;;;;;;;10.96;81.52;99602.09;5022753;28;20205;-78
2022/12/29 11:14:13;;;;;;;1.53;0.50;;;;;;;10.87;78.33;99652.84;5023565;28;20873;-76
2022/12/29 11:16:41;;;;;;;0.83;0.50;;;;;;;10.89;76.88;99694.56;5022797;28;20216;-76
2022/12/29 11:19:21;;;;;;;1.03;0.60;;;;;;;11.01;77.87;99701.16;5021180;28;20620;-77
2022/12/29 11:21:48;;;;;;;1.27;0.67;;;;;;;11.02;77.29;99729.84;5021218;28;20206;-76
2022/12/29 11:24:22;;;;;;;1.53;0.90;;;;;;;10.96;74.42;99794.44;5023016;28;20214;-78
2022/12/29 11:26:50;;;;;;;5.27;0.87;;;;;;;11.02;74.39;99800.34;5024468;28;20202;-76
2022/12/29 11:29:22;;;;;;;1.17;0.50;;;;;;;11.04;73.71;99839.44;5021768;28;20578;-77
2022/12/29 11:31:50;;;;;;;0.83;0.50;;;;;;;10.92;72.14;99875.50;5021060;28;20202;-76
2022/12/29 11:34:22;;;;;;;2.13;1.40;;;;;;;10.99;73.48;99880.53;5021788;28;20268;-77
2022/12/29 11:36:51;;;;;;;2.67;1.33;;;;;;;10.92;72.92;99896.38;5012466;28;20214;-76
2022/12/29 11:39:41;;;;;;;0.90;0.90;;;;;;;10.88;72.10;99914.78;5012632;28;20233;-77
2022/12/29 11:42:15;;;;;;;2.03;0.83;;;;;;;10.90;73.86;99907.75;5006800;28;20214;-79
2022/12/29 11:44:45;;;;;;;3.53;0.73;;;;;;;10.99;75.20;99889.22;5012021;28;20213;-76
2022/12/29 11:47:24;;;;;;;3.03;1.43;;;;;;;11.08;75.35;99864.56;5012541;28;20237;-76
2022/12/29 11:49:52;;;;;;;1.93;1.00;;;;;;;11.00;74.80;99846.53;5012020;28;20327;-76
2022/12/29 11:52:25;;;;;;;1.60;0.70;;;;;;;10.99;74.50;99833.53;5012696;28;20211;-77
2022/12/29 11:54:52;;;;;;;2.37;1.07;;;;;;;10.96;74.48;99854.50;5012158;28;20560;-76
2022/12/29 11:57:20;;;;;;;1.93;0.80;;;;;;;10.88;73.49;99868.66;5011917;28;20636;-77
2022/12/29 11:59:50;;;;;;;0.70;0.60;;;;;;;10.93;73.96;99860.69;5011682;28;20595;-77
2022/12/29 12:02:34;;;;;;;1.50;1.10;;;;;;;10.78;72.93;99838.47;5022076;28;20282;-76
2022/12/29 12:05:10;;;;;;;2.43;0.70;;;;;;;10.91;73.97;99858.09;5032064;28;20675;-77
2022/12/29 12:07:42;;;;;;;2.10;0.80;;;;;;;11.00;74.22;99830.88;5028963;28;20240;-76
2022/12/29 12:10:18;;;;;;;3.97;1.47;;;;;;;11.00;71.95;99845.66;5012783;28;20241;-79
2022/12/29 12:12:50;;;;;;;1.57;0.90;;;;;;;11.04;72.77;99876.00;5013420;28;20292;-78
2022/12/29 12:15:22;;;;;;;2.47;1.00;;;;;;;11.10;72.10;99866.25;5014067;28;20210;-77
2022/12/29 12:17:54;;;;;;;2.47;1.23;;;;;;;10.99;70.89;99873.56;5013128;28;20226;-77
2022/12/29 12:20:23;;;;;;;2.30;1.47;;;;;;;11.09;71.54;99884.59;5011674;28;20204;-77